Dickinson, ND (58601)

4:31 PM MDT on August 28, 2016 (GMT -0600)
Southview | | Change Station

Elev 2434 ft 46.86 °N, 102.78 °W | Updated 13 minutes ago

Clear
Clear
96.0 °F
Feels Like 92 °F
N
5.3
Wind Variable Wind from West

Today
High -- | Low -- °F
--% Chance of Precip.
Yesterday
High -- | Low -- °F
Precip. -- in
Pressure 29.85 in
Visibility 10.0 miles
Clouds Clear
Heat Index 92 °F
Dew Point 44 °F
Humidity 17%
Rainfall 0.00 in
Snow Depth Not available.
6:06 AM 7:37 PM
Waning Crescent, 13% visible
METAR KDIK 282156Z AUTO 32012G18KT 10SM CLR 34/M01 A2991 RMK AO2 SLP107 T03391006
Pressure 29.85 in
Visibility 10.0 miles
Clouds Clear
Heat Index 92 °F
Dew Point 44 °F
Humidity 17%
Rainfall 0.00 in
Snow Depth Not available.
6:06 AM 7:37 PM
Waning Crescent, 13% visible
METAR KDIK 282156Z AUTO 32012G18KT 10SM CLR 34/M01 A2991 RMK AO2 SLP107 T03391006

10-Day Weather Forecast

Almanac

Astronomy

Aug. 28, 2016 Rise Set
Actual Time
Civil Twilight
Nautical Twilight
Astronomical Twilight
Moon
Length of Visible Light
Length of Day
Tomorrow will be .
, % of the Moon is Illuminated

Today's Extremes

State Highs State Lows

Community

WunderPhotos

Upload Photos

1,935,705 photos uploaded!

WunderBlog® & News

Nearby

Air Quality

  Air Quality AQ Index Pollutant
Not available.

Snow Depth

Station Depth Elevation

Earthquake Activity

City Distance Mag. Time & Date
Minimum magnitude displayed is 2.5.

Coastal Water Temperatures

Place Temperature

Stations

Nearby Weather Stations

Station Location Temp. Windchill Dew Point Humidity Wind Precip. Elev Updated Type
                   

Watches & Warnings

There are currently no watches in effect.